Time;durP1;ratioP1;P1;durP2;ratioP2;P2;SDS_P1;SDS_P2;PMS_P1;PMS_P2;Temp;Humidity;BMP_temperature;BMP_pressure;BME280_temperature;BME280_humidity;BME280_pressure;Samples;Min_cycle;Max_cycle;Signal;HPM_P1;HPM_P2
2023/08/06 00:00:35;;;;;;;1.30;1.30;;;;;;;16.46;100.00;94786.88;4341548;32;20208;-66
2023/08/06 00:03:01;;;;;;;4.47;1.73;;;;;;;16.23;100.00;94788.53;4352293;32;20197;-66
2023/08/06 00:05:26;;;;;;;0.90;0.90;;;;;;;16.33;100.00;94787.28;4343265;32;20208;-66
2023/08/06 00:07:51;;;;;;;1.90;1.80;;;;;;;16.35;100.00;94793.84;4341347;32;20189;-66
2023/08/06 00:10:17;;;;;;;1.50;1.10;;;;;;;16.23;100.00;94791.22;4348217;32;20237;-66
2023/08/06 00:12:45;;;;;;;1.10;1.10;;;;;;;16.31;100.00;94792.97;4353052;32;20262;-66
2023/08/06 00:15:11;;;;;;;5.63;1.50;;;;;;;16.03;100.00;94792.19;4355874;32;20185;-66
2023/08/06 00:17:37;;;;;;;0.97;0.97;;;;;;;15.98;100.00;94787.09;4341858;32;21364;-67
2023/08/06 00:20:06;;;;;;;1.10;1.10;;;;;;;16.06;100.00;94794.97;4349911;32;20219;-66
2023/08/06 00:22:36;;;;;;;1.17;1.17;;;;;;;15.95;100.00;94801.16;4354130;32;20189;-66
2023/08/06 00:25:03;;;;;;;0.60;0.60;;;;;;;15.88;100.00;94798.28;4343638;32;20208;-67
2023/08/06 00:27:29;;;;;;;1.67;1.57;;;;;;;15.94;100.00;94796.94;4343885;32;20215;-66
2023/08/06 00:29:54;;;;;;;1.83;1.20;;;;;;;15.98;100.00;94797.81;4339552;32;20185;-66
2023/08/06 00:32:20;;;;;;;1.17;1.17;;;;;;;15.92;100.00;94793.81;4352256;32;20244;-66
2023/08/06 00:34:51;;;;;;;0.67;0.67;;;;;;;15.91;100.00;94797.59;4356132;32;20243;-66
2023/08/06 00:37:16;;;;;;;0.80;0.80;;;;;;;15.85;100.00;94788.25;4343080;32;20196;-66
2023/08/06 00:39:43;;;;;;;0.87;0.87;;;;;;;15.84;100.00;94792.81;4344650;32;20263;-67
2023/08/06 00:42:08;;;;;;;1.13;1.03;;;;;;;15.69;100.00;94788.19;4342124;32;20189;-66
2023/08/06 00:44:34;;;;;;;0.53;0.53;;;;;;;15.58;100.00;94795.91;4354191;32;20231;-66
2023/08/06 00:46:59;;;;;;;0.50;0.50;;;;;;;15.71;100.00;94789.41;4342253;32;20180;-66
2023/08/06 00:49:24;;;;;;;0.90;0.90;;;;;;;15.66;100.00;94786.97;4347739;32;20209;-67
2023/08/06 00:51:50;;;;;;;0.50;0.50;;;;;;;15.61;100.00;94784.53;4344224;32;20252;-66
2023/08/06 00:54:16;;;;;;;0.87;0.87;;;;;;;15.68;100.00;94779.37;4354385;32;20193;-67
2023/08/06 00:56:42;;;;;;;1.33;1.33;;;;;;;15.58;100.00;94771.84;4358655;32;20256;-67
2023/08/06 00:59:09;;;;;;;1.00;1.00;;;;;;;15.68;100.00;94779.37;4352307;32;20278;-66
2023/08/06 01:01:35;;;;;;;0.87;0.87;;;;;;;15.55;100.00;94772.50;4358312;32;20181;-66
2023/08/06 01:04:01;;;;;;;0.70;0.70;;;;;;;15.38;100.00;94775.44;4349682;32;20193;-66
2023/08/06 01:06:48;;;;;;;0.67;0.67;;;;;;;15.45;100.00;94775.62;4357055;32;20197;-66
2023/08/06 01:09:32;;;;;;;0.70;0.70;;;;;;;15.46;100.00;94783.31;4342114;32;20234;-66
2023/08/06 01:12:35;;;;;;;0.67;0.67;;;;;;;15.34;100.00;94777.22;4354107;32;20243;-67
2023/08/06 01:15:11;;;;;;;0.70;0.70;;;;;;;15.23;100.00;94768.84;4355887;32;20204;-66
2023/08/06 01:17:37;;;;;;;0.83;0.63;;;;;;;15.22;100.00;94775.31;4350360;32;20256;-66
2023/08/06 01:20:03;;;;;;;0.70;0.70;;;;;;;15.22;100.00;94767.28;4357120;32;20185;-66
2023/08/06 01:22:29;;;;;;;1.00;1.00;;;;;;;15.34;100.00;94761.19;4341216;32;20284;-66
2023/08/06 01:24:54;;;;;;;1.10;1.10;;;;;;;15.29;100.00;94761.41;4355808;32;20216;-66
2023/08/06 01:27:32;;;;;;;1.00;1.00;;;;;;;15.17;100.00;94754.19;4344679;32;20212;-66
2023/08/06 01:30:09;;;;;;;0.93;0.93;;;;;;;15.12;100.00;94752.50;4343148;32;20197;-66
2023/08/06 01:32:38;;;;;;;3.50;0.90;;;;;;;15.15;100.00;94758.31;4353036;32;20197;-66
2023/08/06 01:35:05;;;;;;;1.13;1.13;;;;;;;15.16;100.00;94752.62;4336626;32;20201;-66
2023/08/06 01:37:31;;;;;;;1.40;1.30;;;;;;;15.28;100.00;94746.47;4351265;32;20182;-67
2023/08/06 01:39:56;;;;;;;1.23;1.00;;;;;;;15.30;100.00;94741.56;4353356;32;20237;-67
2023/08/06 01:42:21;;;;;;;2.60;2.30;;;;;;;15.22;100.00;94748.59;4343240;32;20189;-66
2023/08/06 01:44:47;;;;;;;1.33;1.33;;;;;;;15.22;100.00;94745.91;4355686;32;20197;-66
2023/08/06 01:47:12;;;;;;;0.90;0.90;;;;;;;15.07;100.00;94742.03;4341027;32;20209;-67
2023/08/06 01:49:37;;;;;;;1.03;1.03;;;;;;;15.02;100.00;94747.59;4344546;32;20251;-66
2023/08/06 01:52:03;;;;;;;0.63;0.63;;;;;;;15.04;100.00;94750.72;4348227;32;20211;-67
2023/08/06 01:54:28;;;;;;;1.07;1.07;;;;;;;15.09;100.00;94744.38;4353209;32;20248;-66
2023/08/06 01:56:53;;;;;;;6.57;0.70;;;;;;;14.99;100.00;94745.59;4340782;32;20193;-66
2023/08/06 01:59:19;;;;;;;1.83;1.23;;;;;;;15.05;100.00;94746.94;4350346;32;20188;-67
2023/08/06 02:01:45;;;;;;;1.40;1.30;;;;;;;15.01;100.00;94739.94;4357632;32;20185;-67
2023/08/06 02:04:10;;;;;;;1.00;1.00;;;;;;;15.07;100.00;94736.72;4350253;32;20237;-66
2023/08/06 02:06:35;;;;;;;1.03;1.03;;;;;;;15.09;100.00;94742.50;4357581;32;20246;-67
2023/08/06 02:09:01;;;;;;;0.80;0.80;;;;;;;15.09;100.00;94733.69;4357912;32;20177;-66
2023/08/06 02:11:26;;;;;;;0.57;0.57;;;;;;;14.95;100.00;94728.72;4356873;32;20203;-66
2023/08/06 02:13:51;;;;;;;1.37;1.27;;;;;;;14.94;100.00;94727.16;4345148;32;20204;-66
2023/08/06 02:16:16;;;;;;;0.70;0.70;;;;;;;14.94;100.00;94734.37;4344116;32;20221;-66
2023/08/06 02:18:42;;;;;;;1.50;1.50;;;;;;;15.09;100.00;94734.47;4342268;32;20193;-67
2023/08/06 02:21:07;;;;;;;0.70;0.70;;;;;;;15.07;100.00;94727.91;4343454;32;20265;-66
2023/08/06 02:23:32;;;;;;;1.07;1.07;;;;;;;15.05;100.00;94717.56;4341042;32;20204;-66
2023/08/06 02:26:02;;;;;;;0.80;0.80;;;;;;;15.11;100.00;94718.91;4348847;32;20234;-66
2023/08/06 02:28:28;;;;;;;1.47;1.37;;;;;;;15.08;100.00;94719.56;4353269;32;20212;-66
2023/08/06 02:30:54;;;;;;;1.23;0.73;;;;;;;14.99;100.00;94710.87;4349171;32;20242;-66
2023/08/06 02:33:19;;;;;;;0.87;0.87;;;;;;;14.90;100.00;94710.25;4355591;32;20201;-66
2023/08/06 02:35:44;;;;;;;0.30;0.30;;;;;;;15.03;100.00;94703.75;4349339;32;20189;-66
2023/08/06 02:38:10;;;;;;;0.60;0.60;;;;;;;15.02;100.00;94699.53;4357481;32;20178;-67
2023/08/06 02:40:35;;;;;;;1.83;0.93;;;;;;;15.10;100.00;94695.97;4341461;32;20194;-66
2023/08/06 02:43:00;;;;;;;0.50;0.50;;;;;;;15.10;100.00;94689.84;4340657;32;20185;-66
2023/08/06 02:45:26;;;;;;;0.90;0.90;;;;;;;15.05;100.00;94688.16;4343100;32;20256;-66
2023/08/06 02:47:51;;;;;;;0.53;0.53;;;;;;;14.97;100.00;94686.41;4343120;32;20238;-66
2023/08/06 02:50:16;;;;;;;0.80;0.80;;;;;;;14.98;100.00;94685.28;4353614;32;20185;-66
2023/08/06 02:52:42;;;;;;;0.93;0.93;;;;;;;14.86;100.00;94668.50;4348350;32;20251;-66
2023/08/06 02:55:07;;;;;;;0.30;0.30;;;;;;;14.87;100.00;94665.50;4355404;32;20311;-66
2023/08/06 02:57:32;;;;;;;0.60;0.60;;;;;;;14.88;100.00;94656.38;4340864;32;20240;-66
2023/08/06 02:59:58;;;;;;;0.30;0.30;;;;;;;14.86;100.00;94652.47;4352350;32;20221;-66
2023/08/06 03:02:23;;;;;;;0.60;0.60;;;;;;;14.97;100.00;94656.22;4349243;32;20181;-66
2023/08/06 03:04:48;;;;;;;0.77;0.77;;;;;;;14.82;100.00;94659.59;4342975;32;20231;-66
2023/08/06 03:07:14;;;;;;;0.47;0.47;;;;;;;14.98;100.00;94658.56;4345277;32;20204;-67
2023/08/06 03:09:39;;;;;;;0.83;0.83;;;;;;;14.90;100.00;94656.81;4342629;32;20197;-66
2023/08/06 03:12:05;;;;;;;0.87;0.87;;;;;;;14.83;100.00;94659.28;4345737;32;20193;-66
2023/08/06 03:14:30;;;;;;;0.30;0.30;;;;;;;14.74;100.00;94662.06;4349642;32;20193;-66
2023/08/06 03:16:56;;;;;;;1.10;1.00;;;;;;;14.77;100.00;94655.25;4341784;32;20258;-66
2023/08/06 03:19:21;;;;;;;0.57;0.57;;;;;;;14.71;100.00;94670.75;4357393;32;20186;-66
2023/08/06 03:21:46;;;;;;;3.03;1.10;;;;;;;14.69;100.00;94674.88;4346119;32;20193;-66
2023/08/06 03:24:13;;;;;;;0.30;0.30;;;;;;;14.81;100.00;94666.06;4350052;32;20228;-66
2023/08/06 03:26:39;;;;;;;0.63;0.63;;;;;;;14.74;100.00;94671.97;4347788;32;20239;-66
2023/08/06 03:29:04;;;;;;;0.57;0.57;;;;;;;14.91;100.00;94676.28;4350915;32;20193;-66
2023/08/06 03:31:29;;;;;;;0.50;0.50;;;;;;;14.72;100.00;94668.88;4355887;32;20243;-67
2023/08/06 03:33:55;;;;;;;0.67;0.67;;;;;;;14.80;100.00;94675.97;4348976;32;20208;-66
2023/08/06 03:36:20;;;;;;;0.67;0.67;;;;;;;14.61;100.00;94673.09;4349881;32;20225;-66
2023/08/06 03:38:45;;;;;;;0.27;0.27;;;;;;;14.61;100.00;94670.41;4355938;32;20188;-66
2023/08/06 03:41:11;;;;;;;0.37;0.37;;;;;;;14.68;100.00;94673.31;4342398;32;20283;-66
2023/08/06 03:43:36;;;;;;;0.63;0.63;;;;;;;14.81;100.00;94668.72;4353080;32;20199;-67
2023/08/06 03:46:01;;;;;;;0.87;0.87;;;;;;;14.76;100.00;94661.72;4350043;32;20189;-67
2023/08/06 03:48:27;;;;;;;5.00;0.60;;;;;;;14.70;100.00;94663.06;4340996;32;20194;-66
2023/08/06 03:50:52;;;;;;;0.40;0.40;;;;;;;14.79;100.00;94664.50;4342315;32;20193;-66
2023/08/06 03:53:17;;;;;;;0.20;0.20;;;;;;;14.63;100.00;94671.63;4354982;32;20242;-66
2023/08/06 03:55:42;;;;;;;1.03;0.67;;;;;;;14.76;100.00;94664.38;4352772;32;20182;-67
2023/08/06 03:58:08;;;;;;;1.27;1.07;;;;;;;14.84;100.00;94655.47;4341541;32;20197;-66
2023/08/06 04:00:33;;;;;;;0.73;0.73;;;;;;;14.78;100.00;94656.81;4355326;32;20283;-66
2023/08/06 04:02:58;;;;;;;0.30;0.30;;;;;;;14.81;100.00;94656.16;4340587;32;20280;-66
2023/08/06 04:05:24;;;;;;;0.83;0.83;;;;;;;14.85;100.00;94657.03;4347096;32;20207;-66
2023/08/06 04:07:49;;;;;;;0.67;0.67;;;;;;;14.65;100.00;94664.06;4353823;32;20185;-66
2023/08/06 04:10:15;;;;;;;0.50;0.40;;;;;;;14.74;100.00;94655.97;4356809;32;20200;-66
2023/08/06 04:12:40;;;;;;;0.47;0.47;;;;;;;14.78;100.00;94656.81;4356285;32;20188;-67
2023/08/06 04:15:06;;;;;;;0.90;0.90;;;;;;;14.75;99.73;94652.19;4343758;32;20256;-67
2023/08/06 04:17:31;;;;;;;0.93;0.70;;;;;;;14.82;99.87;94655.03;4342952;32;20212;-66
2023/08/06 04:19:59;;;;;;;0.40;0.40;;;;;;;14.58;99.87;94663.06;4347583;32;20220;-67
2023/08/06 04:22:25;;;;;;;0.50;0.40;;;;;;;14.52;99.72;94659.09;4354831;32;20184;-66
2023/08/06 04:24:50;;;;;;;0.23;0.23;;;;;;;14.58;100.00;94653.16;4340707;32;20261;-66
2023/08/06 04:27:18;;;;;;;0.90;0.90;;;;;;;14.60;100.00;94650.94;4348623;32;20198;-66
2023/08/06 04:29:43;;;;;;;0.20;0.20;;;;;;;14.62;100.00;94653.28;4352001;32;20213;-66
2023/08/06 04:32:10;;;;;;;0.90;0.90;;;;;;;14.75;99.93;94652.19;4342716;32;20208;-66
2023/08/06 04:34:36;;;;;;;0.37;0.37;;;;;;;14.70;100.00;94649.72;4352983;32;20205;-66
2023/08/06 04:37:03;;;;;;;0.30;0.30;;;;;;;14.57;99.55;94664.19;4355812;32;20193;-66
2023/08/06 04:39:28;;;;;;;0.63;0.63;;;;;;;14.58;99.75;94665.72;4355994;32;20193;-66
2023/08/06 04:41:53;;;;;;;0.70;0.50;;;;;;;14.64;99.81;94659.06;4339220;32;20250;-66
2023/08/06 04:44:19;;;;;;;0.77;0.77;;;;;;;14.61;100.00;94668.53;4343921;32;20264;-66
2023/08/06 04:46:44;;;;;;;0.13;0.13;;;;;;;14.44;100.00;94664.19;4340878;32;20185;-66
2023/08/06 04:49:09;;;;;;;3.07;0.80;;;;;;;14.54;100.00;94670.22;4355075;32;20282;-66
2023/08/06 04:51:35;;;;;;;0.20;0.20;;;;;;;14.57;99.60;94672.97;4338450;32;20208;-67
2023/08/06 04:54:00;;;;;;;0.50;0.50;;;;;;;14.46;100.00;94669.19;4348167;32;20200;-66
2023/08/06 04:56:25;;;;;;;0.80;0.80;;;;;;;14.62;100.00;94663.97;4350956;32;20189;-66
2023/08/06 04:58:51;;;;;;;0.60;0.60;;;;;;;14.70;99.50;94663.06;4352586;32;20238;-65
2023/08/06 05:01:16;;;;;;;0.50;0.50;;;;;;;14.72;99.26;94664.31;4353957;32;20189;-66
2023/08/06 05:03:42;;;;;;;1.00;1.00;;;;;;;14.62;100.00;94663.97;4340907;32;20189;-66
2023/08/06 05:06:07;;;;;;;0.50;0.50;;;;;;;14.66;99.75;94664.84;4349191;32;20292;-66
2023/08/06 05:08:33;;;;;;;0.60;0.60;;;;;;;14.62;100.00;94669.31;4339129;32;20181;-66
2023/08/06 05:10:58;;;;;;;0.20;0.20;;;;;;;14.71;99.91;94670.75;4346490;32;20250;-67
2023/08/06 05:13:23;;;;;;;0.60;0.60;;;;;;;14.80;99.01;94665.28;4349007;32;20247;-66
2023/08/06 05:15:49;;;;;;;1.33;0.77;;;;;;;14.82;99.05;94657.72;4346771;32;20229;-65
2023/08/06 05:18:14;;;;;;;0.37;0.37;;;;;;;14.91;99.04;94655.72;4344328;32;20193;-66
2023/08/06 05:20:41;;;;;;;0.50;0.50;;;;;;;14.88;99.49;94661.72;4334334;32;20291;-66
2023/08/06 05:23:07;;;;;;;0.40;0.40;;;;;;;14.86;98.82;94653.25;4350635;32;20193;-66
2023/08/06 05:25:34;;;;;;;1.13;0.67;;;;;;;14.68;99.37;94659.97;4358192;32;20228;-66
2023/08/06 05:28:01;;;;;;;0.30;0.30;;;;;;;14.63;99.16;94660.19;4353408;32;20181;-66
2023/08/06 05:30:26;;;;;;;0.77;0.50;;;;;;;14.70;98.80;94658.50;4348131;32;20261;-66
2023/08/06 05:32:52;;;;;;;0.63;0.63;;;;;;;14.92;98.56;94659.94;4352937;32;20201;-66
2023/08/06 05:35:17;;;;;;;0.50;0.50;;;;;;;14.78;98.17;94667.50;4335024;32;20261;-66
2023/08/06 05:37:42;;;;;;;1.10;0.70;;;;;;;14.84;98.55;94666.16;4345289;32;20225;-66
2023/08/06 05:40:08;;;;;;;0.60;0.60;;;;;;;14.87;98.23;94676.19;4354052;32;20211;-66
2023/08/06 05:42:33;;;;;;;4.30;1.47;;;;;;;14.88;98.66;94676.97;4334220;32;20208;-66
2023/08/06 05:44:58;;;;;;;0.40;0.40;;;;;;;15.00;98.08;94669.69;4346812;32;20264;-66
2023/08/06 05:47:24;;;;;;;0.50;0.50;;;;;;;14.86;97.49;94673.84;4338083;32;20184;-66
2023/08/06 05:49:49;;;;;;;0.70;0.70;;;;;;;14.80;98.23;94670.63;4337600;32;20181;-66
2023/08/06 05:52:14;;;;;;;0.60;0.60;;;;;;;14.70;97.86;94666.53;4348627;32;20239;-66
2023/08/06 05:54:40;;;;;;;0.40;0.40;;;;;;;14.89;97.86;94673.19;4359583;32;20190;-66
2023/08/06 05:57:06;;;;;;;0.73;0.73;;;;;;;14.94;96.97;94668.38;4343042;32;20202;-66
2023/08/06 05:59:31;;;;;;;0.40;0.40;;;;;;;14.99;97.14;94668.13;4354073;32;20197;-66
2023/08/06 06:01:57;;;;;;;0.40;0.40;;;;;;;15.03;96.41;94663.69;4357517;32;20236;-66
2023/08/06 06:04:22;;;;;;;0.70;0.70;;;;;;;15.11;96.93;94670.03;4351259;32;20216;-66
2023/08/06 06:06:47;;;;;;;0.30;0.30;;;;;;;15.17;95.49;94673.25;4343194;32;20207;-66
2023/08/06 06:09:13;;;;;;;0.87;0.67;;;;;;;15.20;95.62;94667.19;4343416;32;20185;-66
2023/08/06 06:11:38;;;;;;;1.80;1.00;;;;;;;15.01;95.90;94671.25;4346866;32;20196;-67
2023/08/06 06:14:03;;;;;;;0.53;0.53;;;;;;;15.25;95.37;94666.97;4350735;32;20181;-67
2023/08/06 06:16:28;;;;;;;0.63;0.63;;;;;;;15.20;95.06;94670.66;4345477;32;20240;-66
2023/08/06 06:18:54;;;;;;;0.30;0.30;;;;;;;15.37;93.66;94667.72;4349923;32;20180;-66
2023/08/06 06:21:20;;;;;;;0.50;0.50;;;;;;;15.49;93.80;94672.25;4348409;32;20184;-66
2023/08/06 06:23:45;;;;;;;0.37;0.37;;;;;;;15.42;95.14;94672.81;4342467;32;20221;-67
2023/08/06 06:26:10;;;;;;;0.30;0.30;;;;;;;15.48;94.44;94674.13;4347138;32;20193;-66
2023/08/06 06:28:36;;;;;;;0.40;0.40;;;;;;;15.48;94.91;94676.81;4342357;32;20195;-66
2023/08/06 06:31:01;;;;;;;0.20;0.20;;;;;;;15.59;93.71;94679.78;4347883;32;20212;-67
2023/08/06 06:33:27;;;;;;;0.13;0.13;;;;;;;15.35;92.78;94674.53;4332161;32;20205;-66
2023/08/06 06:35:53;;;;;;;0.33;0.33;;;;;;;15.28;92.82;94683.13;4353763;32;20213;-66
2023/08/06 06:38:18;;;;;;;0.50;0.50;;;;;;;15.38;92.90;94673.84;4347334;32;20201;-65
2023/08/06 06:40:43;;;;;;;0.13;0.13;;;;;;;15.50;93.01;94676.47;4344242;32;20191;-66
2023/08/06 06:43:09;;;;;;;0.47;0.47;;;;;;;15.54;92.42;94674.69;4356693;32;20205;-66
2023/08/06 06:45:34;;;;;;;0.30;0.30;;;;;;;15.71;92.28;94681.66;4337879;32;20212;-67
2023/08/06 06:47:59;;;;;;;0.63;0.63;;;;;;;15.59;91.55;94671.78;4335741;32;20248;-66
2023/08/06 06:50:26;;;;;;;0.70;0.70;;;;;;;15.68;91.89;94674.31;4340301;32;20189;-66
2023/08/06 06:52:51;;;;;;;0.90;0.90;;;;;;;15.76;92.26;94676.84;4335128;32;20216;-66
2023/08/06 06:55:16;;;;;;;0.27;0.27;;;;;;;15.68;92.08;94677.75;4340087;32;20194;-67
2023/08/06 06:57:42;;;;;;;0.30;0.30;;;;;;;15.69;91.26;94682.00;4336742;32;20177;-66
2023/08/06 07:00:07;;;;;;;0.10;0.10;;;;;;;15.75;92.53;94679.88;4348726;32;20334;-67
2023/08/06 07:02:33;;;;;;;0.30;0.30;;;;;;;15.84;91.86;94675.13;4333187;32;20201;-67
2023/08/06 07:04:58;;;;;;;0.50;0.30;;;;;;;15.88;91.14;94669.88;4333369;32;20197;-67
2023/08/06 07:07:23;;;;;;;0.20;0.20;;;;;;;15.98;89.23;94680.09;4351234;32;20196;-67
2023/08/06 07:09:49;;;;;;;0.13;0.13;;;;;;;15.89;89.40;94676.78;4336441;32;20237;-67
2023/08/06 07:12:14;;;;;;;0.70;0.70;;;;;;;16.12;89.03;94675.88;4342253;32;20224;-67
2023/08/06 07:14:39;;;;;;;0.70;0.70;;;;;;;16.13;88.83;94676.66;4351900;32;20208;-67
2023/08/06 07:17:05;;;;;;;3.37;0.70;;;;;;;16.38;88.01;94678.06;4338826;32;20213;-67
2023/08/06 07:19:31;;;;;;;0.20;0.20;;;;;;;16.48;85.60;94672.16;4339410;32;20215;-67
2023/08/06 07:21:56;;;;;;;0.10;0.10;;;;;;;16.44;85.83;94676.66;4335683;32;20213;-67
2023/08/06 07:24:21;;;;;;;0.40;0.40;;;;;;;16.44;84.54;94691.94;4345035;32;20204;-67
2023/08/06 07:26:47;;;;;;;0.17;0.17;;;;;;;16.27;83.65;94677.00;4350555;32;20232;-67
2023/08/06 07:29:12;;;;;;;0.00;0.00;;;;;;;16.35;84.03;94688.66;4334408;32;20181;-67
2023/08/06 07:31:37;;;;;;;0.30;0.30;;;;;;;16.27;86.33;94690.38;4332329;32;20292;-67
2023/08/06 07:34:03;;;;;;;0.00;0.00;;;;;;;16.19;88.08;94693.25;4327385;32;20249;-67
2023/08/06 07:36:28;;;;;;;0.30;0.30;;;;;;;15.97;89.68;94692.69;4336187;32;20235;-67
2023/08/06 07:38:56;;;;;;;0.57;0.57;;;;;;;15.84;90.63;94685.03;4334347;32;20186;-67
2023/08/06 07:41:24;;;;;;;0.30;0.30;;;;;;;15.69;89.82;94684.66;4335510;32;20216;-66
2023/08/06 07:43:49;;;;;;;0.57;0.57;;;;;;;15.62;89.79;94681.78;4343214;32;20245;-66
2023/08/06 07:46:15;;;;;;;0.10;0.10;;;;;;;15.84;90.32;94672.44;4340085;32;20245;-67
2023/08/06 07:48:40;;;;;;;0.17;0.17;;;;;;;15.75;89.34;94677.19;4356861;32;20218;-67
2023/08/06 07:51:05;;;;;;;1.57;0.30;;;;;;;15.66;90.02;94680.00;4339002;32;20220;-67
2023/08/06 07:53:31;;;;;;;0.23;0.23;;;;;;;15.68;90.86;94677.00;4335934;32;20216;-67
2023/08/06 07:55:56;;;;;;;0.50;0.50;;;;;;;15.61;90.77;94674.88;4336414;32;20203;-67
2023/08/06 07:58:24;;;;;;;1.80;0.40;;;;;;;15.59;91.05;94674.44;4335456;32;20296;-66
2023/08/06 08:00:49;;;;;;;0.33;0.33;;;;;;;15.65;91.11;94667.75;4349228;32;20499;-66
2023/08/06 08:03:15;;;;;;;0.00;0.00;;;;;;;15.78;91.84;94660.47;4337903;32;20240;-66
2023/08/06 08:05:44;;;;;;;0.00;0.00;;;;;;;15.66;89.17;94663.97;4349225;32;20232;-67
2023/08/06 08:08:10;;;;;;;0.33;0.33;;;;;;;15.78;88.34;94665.81;4338101;32;20229;-67
2023/08/06 08:10:36;;;;;;;0.00;0.00;;;;;;;16.09;88.38;94655.16;4337836;32;20241;-67
2023/08/06 08:13:04;;;;;;;0.10;0.10;;;;;;;16.32;87.90;94655.31;4341979;32;20193;-67
2023/08/06 08:15:31;;;;;;;0.10;0.10;;;;;;;16.30;85.90;94654.12;4349025;32;20200;-67
2023/08/06 08:17:57;;;;;;;0.87;0.47;;;;;;;16.45;86.33;94651.44;4345648;32;20189;-66
2023/08/06 08:20:22;;;;;;;0.10;0.10;;;;;;;16.54;84.24;94647.81;4334207;32;20339;-67
2023/08/06 08:22:48;;;;;;;0.30;0.30;;;;;;;16.53;83.59;94638.22;4341757;32;20193;-66
2023/08/06 08:25:14;;;;;;;0.93;0.50;;;;;;;16.57;84.02;94639.09;4345185;32;20197;-67
2023/08/06 08:27:39;;;;;;;0.23;0.23;;;;;;;16.59;83.14;94631.47;4335475;32;20217;-67
2023/08/06 08:30:05;;;;;;;0.00;0.00;;;;;;;16.64;82.58;94625.84;4339566;32;20184;-67
2023/08/06 08:32:30;;;;;;;1.17;0.57;;;;;;;16.81;82.22;94622.81;4355170;32;20212;-67
2023/08/06 08:34:56;;;;;;;0.53;0.53;;;;;;;16.88;82.27;94628.31;4352151;32;20201;-66
2023/08/06 08:37:21;;;;;;;0.20;0.20;;;;;;;16.90;81.06;94623.38;4338986;32;20193;-66
2023/08/06 08:39:46;;;;;;;0.00;0.00;;;;;;;17.09;81.53;94615.38;4333979;32;20201;-67
2023/08/06 08:42:12;;;;;;;2.10;0.50;;;;;;;17.03;80.34;94618.69;4351355;32;20245;-67
2023/08/06 08:44:39;;;;;;;0.10;0.10;;;;;;;17.08;79.25;94629.13;4331306;32;24281;-67
2023/08/06 08:47:09;;;;;;;0.03;0.03;;;;;;;17.00;78.61;94622.84;4348936;32;20189;-67
2023/08/06 08:49:35;;;;;;;0.10;0.10;;;;;;;16.94;78.41;94629.59;4336668;32;20268;-67
2023/08/06 08:52:05;;;;;;;0.00;0.00;;;;;;;16.85;79.30;94629.00;4350791;32;20276;-67
2023/08/06 08:54:31;;;;;;;0.27;0.10;;;;;;;16.91;78.74;94634.87;4341475;32;20227;-67
2023/08/06 08:56:56;;;;;;;0.20;0.20;;;;;;;16.69;78.25;94642.44;4339220;32;20189;-67
2023/08/06 08:59:22;;;;;;;0.10;0.10;;;;;;;16.80;78.12;94642.72;4347240;32;20244;-67
2023/08/06 09:01:51;;;;;;;0.40;0.20;;;;;;;16.60;77.73;94638.38;4357487;32;20211;-67
2023/08/06 09:04:18;;;;;;;0.17;0.17;;;;;;;16.68;78.45;94645.47;4339366;32;20185;-67
2023/08/06 09:06:46;;;;;;;0.10;0.10;;;;;;;16.86;78.94;94643.97;4344292;32;20193;-67
2023/08/06 09:09:15;;;;;;;0.10;0.10;;;;;;;16.90;76.85;94652.09;4338096;32;20205;-67
2023/08/06 09:11:43;;;;;;;0.00;0.00;;;;;;;16.82;76.74;94643.13;4346384;32;20249;-67
2023/08/06 09:14:09;;;;;;;1.37;0.13;;;;;;;16.71;76.98;94634.84;4344483;32;20322;-67
2023/08/06 09:16:35;;;;;;;0.10;0.10;;;;;;;16.79;78.17;94660.69;4344540;32;20198;-67
2023/08/06 09:19:17;;;;;;;0.17;0.17;;;;;;;16.85;77.29;94666.53;4336290;32;20189;-67
2023/08/06 09:21:43;;;;;;;0.10;0.10;;;;;;;16.73;79.17;94678.12;4337541;32;20200;-67
2023/08/06 09:24:10;;;;;;;0.10;0.10;;;;;;;16.73;80.59;94672.00;4331995;32;20256;-67
2023/08/06 09:26:37;;;;;;;0.57;0.30;;;;;;;16.75;80.01;94677.78;4336341;32;20193;-67
2023/08/06 09:29:05;;;;;;;0.00;0.00;;;;;;;16.60;79.44;94665.94;4326314;32;20193;-67
2023/08/06 09:31:40;;;;;;;0.47;0.40;;;;;;;16.47;78.91;94656.44;4332233;32;20276;-67
2023/08/06 09:34:21;;;;;;;0.10;0.10;;;;;;;16.37;80.44;94665.78;4325527;32;20269;-67
2023/08/06 09:36:51;;;;;;;0.10;0.10;;;;;;;16.44;80.24;94665.94;4332047;32;20185;-67
2023/08/06 09:39:21;;;;;;;0.00;0.00;;;;;;;16.54;80.70;94669.22;4338489;32;20233;-67
2023/08/06 09:41:50;;;;;;;0.00;0.00;;;;;;;16.58;79.37;94665.50;4337060;32;20181;-67
2023/08/06 09:44:21;;;;;;;4.07;0.30;;;;;;;16.64;79.62;94666.81;4337130;32;20190;-67
2023/08/06 09:46:51;;;;;;;0.10;0.10;;;;;;;16.47;78.93;94664.47;4337466;32;20198;-67
2023/08/06 09:49:18;;;;;;;0.00;0.00;;;;;;;16.52;77.74;94660.75;4335919;32;20182;-66
2023/08/06 09:51:45;;;;;;;0.00;0.00;;;;;;;16.44;78.92;94649.09;4318206;32;20190;-67
2023/08/06 09:54:14;;;;;;;0.30;0.30;;;;;;;16.52;78.27;94660.75;4332886;32;20235;-67
2023/08/06 09:56:40;;;;;;;0.00;0.00;;;;;;;16.54;78.09;94658.50;4329042;32;20208;-67
2023/08/06 09:59:06;;;;;;;0.10;0.10;;;;;;;16.67;76.82;94668.03;4341669;32;20216;-67
2023/08/06 10:01:35;;;;;;;0.23;0.23;;;;;;;16.61;75.83;94666.72;4332053;32;20189;-68
2023/08/06 10:04:03;;;;;;;0.00;0.00;;;;;;;16.70;76.61;94678.03;4328674;32;20241;-67
2023/08/06 10:06:29;;;;;;;0.00;0.00;;;;;;;16.69;76.20;94676.50;4332191;32;20216;-67
2023/08/06 10:08:54;;;;;;;0.00;0.00;;;;;;;16.71;76.45;94667.00;4337908;32;20194;-66
2023/08/06 10:11:22;;;;;;;0.00;0.00;;;;;;;16.59;75.66;94685.03;4326136;32;20226;-67
2023/08/06 10:13:49;;;;;;;0.00;0.00;;;;;;;16.54;76.31;94691.44;4338014;32;20190;-67
2023/08/06 10:16:15;;;;;;;0.00;0.00;;;;;;;16.54;76.26;94685.28;4328223;32;20189;-67
2023/08/06 10:18:42;;;;;;;0.00;0.00;;;;;;;16.39;75.84;94684.19;4350859;32;20247;-67
2023/08/06 10:21:09;;;;;;;0.10;0.10;;;;;;;16.40;77.15;94685.75;4352421;32;20185;-67
2023/08/06 10:23:37;;;;;;;0.00;0.00;;;;;;;16.45;76.09;94678.19;4338244;32;20181;-67
2023/08/06 10:26:02;;;;;;;0.20;0.20;;;;;;;16.50;76.91;94685.97;4343077;32;20189;-67
2023/08/06 10:28:38;;;;;;;0.00;0.00;;;;;;;16.63;75.96;94677.84;4338964;32;20186;-67
2023/08/06 10:31:06;;;;;;;0.00;0.00;;;;;;;16.72;76.12;94671.22;4343433;32;20180;-67
2023/08/06 10:33:44;;;;;;;0.00;0.00;;;;;;;16.87;75.48;94674.22;4338663;32;20185;-67
2023/08/06 10:36:10;;;;;;;0.00;0.00;;;;;;;17.05;77.04;94670.03;4339655;32;20188;-67
2023/08/06 10:38:45;;;;;;;0.10;0.10;;;;;;;16.92;73.96;94666.69;4344057;32;20186;-67
2023/08/06 10:41:16;;;;;;;0.13;0.13;;;;;;;17.02;74.00;94679.56;4333998;32;20230;-67
2023/08/06 10:43:44;;;;;;;0.10;0.10;;;;;;;16.72;75.20;94667.75;4334056;32;20188;-67
2023/08/06 10:46:12;;;;;;;0.00;0.00;;;;;;;16.74;75.92;94676.22;4351642;32;20189;-67
2023/08/06 10:48:39;;;;;;;0.00;0.00;;;;;;;16.75;76.42;94691.19;4345565;32;20287;-67
2023/08/06 10:51:12;;;;;;;0.77;0.20;;;;;;;16.74;76.15;94671.66;4346609;32;20205;-67
2023/08/06 10:53:41;;;;;;;0.00;0.00;;;;;;;16.73;75.71;94683.50;4348373;32;20230;-66
2023/08/06 10:56:17;;;;;;;0.00;0.00;;;;;;;16.46;75.61;94689.69;4329772;32;20273;-67
2023/08/06 10:58:44;;;;;;;0.00;0.00;;;;;;;16.63;76.20;94688.56;4345109;32;20219;-67
2023/08/06 11:01:10;;;;;;;0.20;0.10;;;;;;;16.56;75.99;94683.81;4339069;32;20204;-67
2023/08/06 11:03:36;;;;;;;0.10;0.10;;;;;;;16.63;76.77;94688.56;4345688;32;20196;-68
2023/08/06 11:06:02;;;;;;;0.07;0.07;;;;;;;16.93;76.90;94683.53;4355958;32;20181;-67
2023/08/06 11:08:29;;;;;;;0.00;0.00;;;;;;;17.11;76.28;94687.41;4345131;32;20208;-67
2023/08/06 11:10:55;;;;;;;0.00;0.00;;;;;;;17.15;76.38;94697.06;4338199;32;20204;-67
2023/08/06 11:13:21;;;;;;;0.13;0.13;;;;;;;17.13;74.00;94685.16;4348467;32;20240;-67
2023/08/06 11:15:46;;;;;;;0.00;0.00;;;;;;;16.96;74.35;94674.81;4353095;32;20236;-67
2023/08/06 11:18:12;;;;;;;0.00;0.00;;;;;;;17.08;76.18;94686.19;4348509;32;20208;-67
2023/08/06 11:20:38;;;;;;;0.00;0.00;;;;;;;17.06;75.08;94701.84;4352762;32;20181;-67
2023/08/06 11:23:04;;;;;;;0.00;0.00;;;;;;;17.01;74.37;94698.66;4355837;32;20173;-67
2023/08/06 11:25:30;;;;;;;0.00;0.00;;;;;;;16.93;74.38;94696.94;4355644;32;20193;-67